Airfield :
LOGIN :

Register | Disclaimer

   EN    FR    IT 

 










Legend :    VFR   Marginal VFR   IFR   Intensive IFR   Very Intensive IFR
Visi :
Ceiling :
>= 8 km
>= 3000ft
5 to 8 km
1000 to 3000 ft
1500m to 5 km
500 to 1000 ft
800 to 1500m
200 to 500 ft
< 800m
< 200 ft
Symbols :   Thunderstorms  Fog  Heavy snow  Heavy precipitations  Wind > 20 kt
SIGMETs :     Misc.  Thunderstorms  Icing  Turbulence  Mountain Waves  Volcanic Ashes






- Airport Elevation : 1036 ft
- IATA code : CLJ


LRCL - Cluj-Napoca International

CURRENT METAR :
  • 281730Z 04004KT 5000 -RA BR SCT048 OVC065 03/02 Q1007 R07/19//95

EXPIRED METARs :
  • 281700Z 04004KT 5000 -RA SCT048 OVC065 03/02 Q1007 R07/19//95
  • 281630Z 06005KT 5000 -RA BR BKN051 03/02 Q1007 R07/12//95
  • 281600Z 07005KT 5000 BR BKN060 03/02 Q1008 R07/12//95
  • 281530Z 07005KT 5000 BR FEW005 SCT057 03/02 Q1008 R07/12//95
  • 281500Z 06005KT 5000 BR FEW005 03/02 Q1008 R07/19//95
  • 281430Z 07004KT 5000 BR FEW005 03/02 Q1008 R07/19//95

TAF TAF LRCL
Valid from the 28 at 15:00 until the 29 at 00:00 UTC


281400Z 2815/2824 VRB04KT 5000 BR SCT010
TEMPO 2815/2817 3000 BR BKN005
BECMG 2817/2819 3000 -RA BKN010 BKN035
TEMPO 2819/2824 1500 -SHRA SCT005 SCT035CB BKN040



MET'MAP, your aeronautical weather chart ! - Copyright ORBIFLY December 2007 - Disclaimer

ORBIFLY MET'MAP TEAM :

Programming & Development : Alexandra Zaïnal
Concept & original design : Baudouin d'Aumeries
Assistance for programming : Marc-Olivier Méhu
Technical & hardware support : Manuel Goepfert

Contact : metmap@orbifly.com




SOURCES & CREDITS :

   NOAA